createdAt,value
2023-03-21T00:01:55.596Z,18.10
2023-03-21T00:04:25.614Z,23.00
2023-03-21T00:06:53.825Z,16.20
2023-03-21T00:09:21.690Z,22.00
2023-03-21T00:11:49.451Z,22.50
2023-03-21T00:14:18.905Z,21.50
2023-03-21T00:16:53.103Z,22.80
2023-03-21T00:19:21.915Z,23.20
2023-03-21T00:22:06.650Z,22.30
2023-03-21T00:24:36.513Z,21.30
2023-03-21T00:32:21.916Z,20.90
2023-03-21T00:35:11.950Z,18.80
2023-03-21T00:37:40.373Z,23.80
2023-03-21T00:40:23.070Z,25.10
2023-03-21T00:42:53.531Z,24.10
2023-03-21T00:45:22.251Z,20.80
2023-03-21T00:47:50.254Z,28.10
2023-03-21T00:50:18.204Z,26.30
2023-03-21T00:52:46.126Z,21.80
2023-03-21T00:55:15.355Z,21.30
2023-03-21T00:57:47.503Z,20.30
2023-03-21T01:04:03.200Z,18.20
2023-03-21T01:06:39.297Z,13.60
2023-03-21T01:09:12.448Z,17.00
2023-03-21T01:11:41.806Z,20.00
2023-03-21T01:14:22.534Z,20.20
2023-03-21T01:16:53.370Z,20.30
2023-03-21T01:19:37.909Z,13.00
2023-03-21T01:22:12.636Z,14.50
2023-03-21T01:24:50.672Z,17.10
2023-03-21T01:27:22.061Z,13.50
2023-03-21T01:29:49.935Z,12.40
2023-03-21T01:32:17.815Z,12.40
2023-03-21T01:34:45.792Z,14.70
2023-03-21T01:37:15.180Z,13.80
2023-03-21T01:39:51.274Z,15.40
2023-03-21T01:42:19.923Z,18.30
2023-03-21T01:44:59.796Z,16.30
2023-03-21T01:47:35.562Z,17.40
2023-03-21T01:50:29.762Z,20.40
2023-03-21T01:53:07.197Z,20.20
2023-03-21T01:55:37.529Z,17.50
2023-03-21T01:58:30.025Z,17.20
2023-03-21T02:01:04.974Z,16.40
2023-03-21T02:03:50.380Z,15.50
2023-03-21T02:06:35.374Z,16.20
2023-03-21T02:09:13.753Z,18.70
2023-03-21T02:11:46.446Z,19.00
2023-03-21T02:14:23.401Z,17.40
2023-03-21T02:17:05.259Z,17.50
2023-03-21T02:20:02.554Z,19.30
2023-03-21T02:22:42.012Z,19.00
2023-03-21T02:25:27.834Z,18.40
2023-03-21T02:28:11.729Z,23.40
2023-03-21T02:30:58.689Z,22.60
2023-03-21T02:33:45.574Z,20.20
2023-03-21T02:36:26.384Z,17.50
2023-03-21T02:38:59.927Z,17.70
2023-03-21T02:41:40.701Z,19.10
2023-03-21T02:44:11.704Z,19.90
2023-03-21T02:47:02.993Z,21.50
2023-03-21T02:49:43.191Z,15.90
2023-03-21T02:52:31.871Z,19.70
2023-03-21T02:55:20.322Z,19.40
2023-03-21T02:57:54.590Z,18.40
2023-03-21T03:00:49.729Z,20.10
2023-03-21T03:03:34.586Z,20.10
2023-03-21T03:06:13.486Z,16.60
2023-03-21T03:09:02.528Z,22.70
2023-03-21T03:11:39.982Z,20.80
2023-03-21T03:15:04.837Z,13.50
2023-03-21T03:17:47.589Z,15.20
2023-03-21T03:20:39.429Z,17.30
2023-03-21T03:23:19.510Z,12.30
2023-03-21T03:26:08.575Z,15.60
2023-03-21T03:28:41.368Z,12.60
2023-03-21T03:31:21.965Z,14.60
2023-03-21T03:33:58.260Z,17.60
2023-03-21T03:36:37.060Z,17.60
2023-03-21T03:39:15.876Z,15.20
2023-03-21T03:42:12.639Z,17.50
2023-03-21T03:44:48.755Z,14.00
2023-03-21T03:47:33.691Z,16.90
2023-03-21T03:50:19.284Z,13.20
2023-03-21T03:52:57.394Z,14.30
2023-03-21T03:55:34.359Z,14.90
2023-03-21T03:58:19.641Z,14.60
2023-03-21T04:00:52.189Z,14.40
2023-03-21T04:03:20.831Z,10.30
2023-03-21T04:05:49.399Z,14.50
2023-03-21T04:08:17.581Z,11.70
2023-03-21T04:10:49.562Z,17.70
2023-03-21T04:13:17.666Z,13.40
2023-03-21T04:16:07.808Z,14.80
2023-03-21T04:18:35.979Z,16.30
2023-03-21T04:21:10.857Z,15.20
2023-03-21T04:23:40.720Z,16.10
2023-03-21T04:26:09.668Z,12.70
2023-03-21T04:28:41.631Z,14.40
2023-03-21T04:31:41.544Z,15.30
2023-03-21T04:34:13.260Z,14.10
2023-03-21T04:36:46.287Z,13.80
2023-03-21T04:39:15.066Z,12.40
2023-03-21T04:44:15.909Z,11.00
2023-03-21T04:46:44.173Z,11.40
2023-03-21T04:49:12.623Z,13.30
2023-03-21T04:51:40.678Z,14.20
2023-03-21T04:56:42.918Z,19.30
2023-03-21T04:59:13.485Z,12.60
2023-03-21T05:01:43.679Z,12.40
2023-03-21T05:04:13.820Z,12.30
2023-03-21T05:06:45.263Z,11.10
2023-03-21T05:09:13.416Z,16.10
2023-03-21T05:11:42.023Z,16.80
2023-03-21T05:14:15.273Z,21.70
2023-03-21T05:16:48.513Z,18.20
2023-03-21T05:19:19.010Z,17.70
2023-03-21T05:21:47.159Z,17.90
2023-03-21T05:24:22.291Z,23.00
2023-03-21T05:26:50.779Z,15.90
2023-03-21T05:29:20.328Z,22.00
2023-03-21T05:31:57.276Z,19.10
2023-03-21T05:34:25.582Z,18.10
2023-03-21T05:36:54.532Z,19.90
2023-03-21T05:39:22.791Z,21.80
2023-03-21T05:42:06.882Z,12.70
2023-03-21T05:44:35.008Z,16.20
2023-03-21T05:47:06.150Z,14.40
2023-03-21T05:49:44.684Z,17.30
2023-03-21T05:52:13.020Z,17.30
2023-03-21T05:54:40.864Z,20.70
2023-03-21T05:57:09.022Z,16.50
2023-03-21T06:04:03.444Z,15.50
2023-03-21T06:06:30.205Z,19.50
2023-03-21T06:08:59.283Z,17.20
2023-03-21T06:11:30.013Z,15.80
2023-03-21T06:14:31.653Z,15.60
2023-03-21T06:17:18.335Z,15.00
2023-03-21T06:19:52.013Z,16.40
2023-03-21T06:22:31.071Z,14.10
2023-03-21T06:24:57.731Z,17.70
2023-03-21T06:27:24.380Z,16.90
2023-03-21T06:29:53.165Z,14.60
2023-03-21T06:32:19.628Z,18.40
2023-03-21T06:34:46.811Z,15.10
2023-03-21T06:37:14.665Z,12.50
2023-03-21T06:39:41.279Z,14.40
2023-03-21T06:42:08.224Z,18.50
2023-03-21T06:44:35.004Z,12.90
2023-03-21T06:47:05.589Z,10.60
2023-03-21T06:49:33.395Z,14.70
2023-03-21T06:52:06.091Z,12.40
2023-03-21T06:54:32.400Z,16.50
2023-03-21T06:57:01.560Z,15.50
2023-03-21T07:03:33.574Z,13.10
2023-03-21T07:06:11.076Z,11.10
2023-03-21T07:08:39.131Z,14.60
2023-03-21T07:11:05.778Z,16.40
2023-03-21T07:13:32.695Z,14.30
2023-03-21T07:16:03.762Z,9.00
2023-03-21T07:18:30.864Z,16.50
2023-03-21T07:20:57.433Z,13.10
2023-03-21T07:23:25.186Z,12.40
2023-03-21T07:25:52.641Z,13.00
2023-03-21T07:28:20.045Z,10.80
2023-03-21T07:30:55.275Z,8.80
2023-03-21T07:33:22.844Z,8.30
2023-03-21T07:35:51.743Z,8.80
2023-03-21T07:38:18.994Z,8.60
2023-03-21T07:40:46.960Z,8.20
2023-03-21T07:43:15.247Z,10.80
2023-03-21T07:45:43.987Z,9.20
2023-03-21T07:48:13.393Z,9.30
2023-03-21T07:50:40.348Z,9.00
2023-03-21T07:53:07.521Z,10.10
2023-03-21T07:55:34.339Z,11.10
2023-03-21T07:58:01.966Z,8.90
2023-03-21T08:00:28.622Z,9.10
2023-03-21T08:02:58.693Z,10.20
2023-03-21T08:05:29.444Z,8.50
2023-03-21T08:07:56.754Z,8.10
2023-03-21T08:10:23.564Z,12.10
2023-03-21T08:12:49.957Z,12.00
2023-03-21T08:15:16.814Z,10.20
2023-03-21T08:17:44.927Z,7.30
2023-03-21T08:20:17.356Z,7.40
2023-03-21T08:22:43.882Z,8.10
2023-03-21T08:25:15.223Z,5.40
2023-03-21T08:27:43.930Z,5.40
2023-03-21T08:30:13.654Z,8.70
2023-03-21T08:35:11.142Z,5.10
2023-03-21T08:37:39.481Z,6.10
2023-03-21T08:40:12.609Z,5.20
2023-03-21T08:42:40.636Z,7.80
2023-03-21T08:45:09.046Z,5.40
2023-03-21T08:47:35.528Z,5.00
2023-03-21T08:50:05.889Z,5.30
2023-03-21T08:52:32.885Z,6.30
2023-03-21T08:55:01.546Z,5.80
2023-03-21T08:57:28.570Z,5.70
2023-03-21T08:59:57.160Z,7.90
2023-03-21T09:02:23.547Z,4.90
2023-03-21T09:04:52.370Z,4.40
2023-03-21T09:07:19.437Z,5.20
2023-03-21T09:09:53.427Z,6.70
2023-03-21T09:12:24.733Z,7.40
2023-03-21T09:14:52.561Z,7.30
2023-03-21T09:17:21.156Z,8.80
2023-03-21T09:19:48.564Z,7.10
2023-03-21T09:22:16.738Z,7.50
2023-03-21T09:24:48.570Z,6.00
2023-03-21T09:27:22.285Z,6.20
2023-03-21T09:29:49.380Z,6.70
2023-03-21T09:32:17.514Z,7.90
2023-03-21T09:34:44.896Z,4.20
2023-03-21T09:37:13.029Z,6.90
2023-03-21T09:39:42.213Z,7.50
2023-03-21T09:42:47.498Z,7.10
2023-03-21T09:45:48.056Z,6.10
2023-03-21T09:48:29.545Z,6.80
2023-03-21T09:50:57.847Z,6.20
2023-03-21T09:53:35.072Z,6.20
2023-03-21T09:56:03.231Z,6.80
2023-03-21T09:58:39.415Z,6.90
2023-03-21T10:01:21.920Z,6.90
2023-03-21T10:03:53.029Z,6.20
2023-03-21T10:06:21.185Z,6.10
2023-03-21T10:08:48.397Z,5.20
2023-03-21T10:11:28.936Z,8.40
2023-03-21T10:13:59.003Z,6.50
2023-03-21T10:16:40.952Z,5.10
2023-03-21T10:19:14.675Z,8.50
2023-03-21T10:21:59.590Z,5.40
2023-03-21T10:24:28.974Z,5.60
2023-03-21T10:26:58.647Z,5.40
2023-03-21T10:31:55.114Z,5.10
2023-03-21T10:34:42.074Z,6.50
2023-03-21T10:37:10.938Z,7.60
2023-03-21T10:39:46.154Z,8.30
2023-03-21T10:42:20.632Z,6.50
2023-03-21T10:44:49.075Z,5.30
2023-03-21T10:47:24.932Z,6.80
2023-03-21T10:50:08.972Z,5.60
2023-03-21T10:52:41.244Z,6.80
2023-03-21T10:55:28.541Z,5.30
2023-03-21T10:57:59.391Z,5.60
2023-03-21T11:04:06.198Z,5.70
2023-03-21T11:06:39.265Z,7.00
2023-03-21T11:09:15.530Z,5.70
2023-03-21T11:11:54.324Z,6.40
2023-03-21T11:14:43.049Z,5.60
2023-03-21T11:17:16.816Z,6.20
2023-03-21T11:20:09.156Z,3.90
2023-03-21T11:22:43.510Z,5.40
2023-03-21T11:25:23.791Z,5.50
2023-03-21T11:27:56.857Z,4.50
2023-03-21T11:30:27.258Z,5.10
2023-03-21T11:32:57.209Z,3.20
2023-03-21T11:35:33.124Z,5.80
2023-03-21T11:38:01.396Z,4.00
2023-03-21T11:40:32.040Z,4.00
2023-03-21T11:43:01.448Z,3.80
2023-03-21T11:45:39.313Z,3.50
2023-03-21T11:48:14.870Z,5.20
2023-03-21T11:50:48.867Z,4.30
2023-03-21T11:53:41.704Z,3.30
2023-03-21T11:56:32.201Z,4.50
2023-03-21T11:59:24.621Z,3.10
2023-03-21T12:02:00.307Z,4.50
2023-03-21T12:04:34.495Z,5.30
2023-03-21T12:07:37.667Z,4.60
2023-03-21T12:10:36.515Z,4.00
2023-03-21T12:13:19.033Z,4.40
2023-03-21T12:16:04.920Z,4.40
2023-03-21T12:18:35.737Z,4.60
2023-03-21T12:21:23.884Z,4.00
2023-03-21T12:24:29.333Z,3.80
2023-03-21T12:27:04.527Z,2.50
2023-03-21T12:30:12.260Z,4.40
2023-03-21T12:33:04.229Z,4.10
2023-03-21T12:36:00.778Z,4.30
2023-03-21T12:38:39.270Z,3.60
2023-03-21T12:41:16.045Z,3.50
2023-03-21T12:44:00.836Z,2.90
2023-03-21T12:46:50.893Z,2.80
2023-03-21T12:49:33.171Z,2.60
2023-03-21T12:52:12.666Z,4.00
2023-03-21T12:54:59.294Z,3.50
2023-03-21T12:57:40.194Z,4.30
2023-03-21T13:00:17.639Z,3.60
2023-03-21T13:03:12.492Z,3.30
2023-03-21T13:05:49.759Z,3.80
2023-03-21T13:08:28.864Z,4.10
2023-03-21T13:10:59.570Z,3.20
2023-03-21T13:13:43.057Z,5.10
2023-03-21T13:16:29.478Z,2.60
2023-03-21T13:19:04.828Z,4.60
2023-03-21T13:21:51.066Z,2.60
2023-03-21T13:24:40.193Z,1.30
2023-03-21T13:27:24.923Z,2.10
2023-03-21T13:29:59.967Z,2.30
2023-03-21T13:32:40.800Z,2.50
2023-03-21T13:35:09.798Z,2.10
2023-03-21T13:37:40.975Z,2.60
2023-03-21T13:40:23.499Z,2.10
2023-03-21T13:42:59.515Z,3.00
2023-03-21T13:45:32.390Z,3.70
2023-03-21T13:48:30.438Z,2.80
2023-03-21T13:51:06.534Z,2.60
2023-03-21T13:53:45.643Z,3.50
2023-03-21T13:56:16.256Z,3.80
2023-03-21T13:58:43.988Z,4.80
2023-03-21T14:01:30.627Z,5.70
2023-03-21T14:04:24.053Z,5.80
2023-03-21T14:07:08.260Z,4.00
2023-03-21T14:09:39.058Z,3.60
2023-03-21T14:12:11.587Z,5.60
2023-03-21T14:15:16.106Z,2.70
2023-03-21T14:18:16.075Z,3.50
2023-03-21T14:20:54.623Z,3.40
2023-03-21T14:23:23.013Z,3.90
2023-03-21T14:25:51.605Z,5.10
2023-03-21T14:28:28.193Z,5.50
2023-03-21T14:31:00.358Z,4.20
2023-03-21T14:33:41.505Z,3.60
2023-03-21T14:36:20.330Z,3.80
2023-03-21T14:39:05.633Z,3.30
2023-03-21T14:41:43.487Z,3.90
2023-03-21T14:44:26.140Z,3.80
2023-03-21T14:47:06.630Z,5.60
2023-03-21T14:49:36.771Z,4.40
2023-03-21T14:52:10.320Z,4.00
2023-03-21T14:54:44.133Z,4.20
2023-03-21T14:57:15.412Z,4.20
2023-03-21T14:59:43.400Z,4.00
2023-03-21T15:02:25.373Z,4.60
2023-03-21T15:04:58.206Z,3.90
2023-03-21T15:07:30.369Z,5.60
2023-03-21T15:10:03.279Z,3.90
2023-03-21T15:12:33.290Z,5.80
2023-03-21T15:36:25.382Z,6.20
2023-03-21T15:38:53.035Z,3.50
2023-03-21T15:41:19.602Z,4.40
2023-03-21T15:43:47.165Z,3.20
2023-03-21T15:46:17.456Z,4.30
2023-03-21T15:48:44.781Z,4.50
2023-03-21T15:51:23.012Z,5.10
2023-03-21T15:53:53.419Z,4.20
2023-03-21T15:56:21.521Z,3.30
2023-03-21T15:58:52.028Z,3.70
2023-03-21T16:01:21.409Z,4.90
2023-03-21T16:06:25.317Z,3.20
2023-03-21T16:09:13.745Z,3.60
2023-03-21T16:11:48.712Z,3.40
2023-03-21T16:14:15.414Z,3.30
2023-03-21T16:16:42.105Z,5.10
2023-03-21T16:19:09.423Z,4.50
2023-03-21T16:21:41.097Z,4.50
2023-03-21T16:24:11.440Z,6.00
2023-03-21T16:26:45.069Z,4.50
2023-03-21T16:29:13.944Z,5.20
2023-03-21T16:31:41.441Z,5.80
2023-03-21T16:34:10.008Z,6.60
2023-03-21T16:36:39.700Z,6.40
2023-03-21T16:39:17.211Z,6.70
2023-03-21T16:41:43.593Z,7.40
2023-03-21T16:44:11.034Z,7.40
2023-03-21T16:46:37.392Z,7.60
2023-03-21T16:49:04.182Z,6.20
2023-03-21T16:51:35.567Z,8.20
2023-03-21T16:54:02.352Z,6.90
2023-03-21T16:56:51.963Z,6.40
2023-03-21T16:59:18.999Z,7.20
2023-03-21T17:01:47.833Z,8.70
2023-03-21T17:04:16.293Z,8.40
2023-03-21T17:06:51.566Z,8.20
2023-03-21T17:09:21.001Z,11.70
2023-03-21T17:14:17.344Z,9.90
2023-03-21T17:16:44.890Z,9.40
2023-03-21T17:19:12.673Z,14.10
2023-03-21T17:21:40.220Z,16.40
2023-03-21T17:24:08.768Z,18.20
2023-03-21T17:26:35.852Z,17.50
2023-03-21T17:29:03.328Z,15.70
2023-03-21T17:31:36.148Z,15.20
2023-03-21T17:34:04.432Z,13.50
2023-03-21T17:36:34.020Z,14.90
2023-03-21T17:39:01.239Z,15.60
2023-03-21T17:41:27.955Z,12.30
2023-03-21T17:43:55.704Z,15.30
2023-03-21T17:46:26.674Z,10.60
2023-03-21T17:51:19.662Z,10.20
2023-03-21T17:53:49.061Z,8.60
2023-03-21T17:56:25.501Z,8.80
2023-03-21T17:58:53.488Z,11.20
2023-03-21T18:01:20.606Z,10.60
2023-03-21T18:03:47.428Z,11.80
2023-03-21T18:06:17.595Z,13.00
2023-03-21T18:08:48.078Z,12.40
2023-03-21T18:11:16.308Z,14.60
2023-03-21T18:13:43.775Z,18.50
2023-03-21T18:16:19.421Z,22.50
2023-03-21T18:18:46.181Z,31.20
2023-03-21T18:21:18.942Z,27.20
2023-03-21T18:23:47.036Z,26.30
2023-03-21T18:26:19.728Z,31.60
2023-03-21T18:29:26.280Z,38.80
2023-03-21T18:31:36.425Z,41.10
2023-03-21T18:34:02.868Z,58.80
2023-03-21T18:36:29.307Z,61.20
2023-03-21T18:38:55.988Z,59.70
2023-03-21T18:41:22.629Z,64.20
2023-03-21T18:44:12.955Z,53.60
2023-03-21T18:46:36.259Z,47.30
2023-03-21T18:49:33.459Z,42.80
2023-03-21T18:51:51.850Z,43.90
2023-03-21T18:54:18.781Z,44.40
2023-03-21T18:59:39.514Z,32.00
2023-03-21T19:02:06.770Z,32.60
2023-03-21T19:04:33.617Z,31.10
2023-03-21T19:07:00.151Z,27.20
2023-03-21T19:09:31.220Z,27.10
2023-03-21T19:12:02.601Z,25.30
2023-03-21T19:14:29.795Z,25.40
2023-03-21T19:19:45.202Z,22.60
2023-03-21T19:22:12.118Z,20.00
2023-03-21T19:24:39.741Z,18.20
2023-03-21T19:27:06.910Z,18.80
2023-03-21T19:29:34.024Z,21.70
2023-03-21T19:32:01.319Z,37.00
2023-03-21T19:34:28.740Z,50.70
2023-03-21T19:36:56.798Z,54.50
2023-03-21T19:39:24.444Z,40.50
2023-03-21T19:41:51.742Z,38.60
2023-03-21T19:44:21.117Z,39.40
2023-03-21T19:46:48.450Z,37.80
2023-03-21T19:49:19.667Z,31.90
2023-03-21T19:51:47.029Z,30.60
2023-03-21T19:54:13.697Z,28.40
2023-03-21T19:56:47.091Z,32.50
2023-03-21T19:59:14.604Z,33.20
2023-03-21T20:01:41.161Z,25.30
2023-03-21T20:04:08.656Z,28.60
2023-03-21T20:06:35.814Z,29.50
2023-03-21T20:09:47.298Z,31.10
2023-03-21T20:11:49.832Z,27.90
2023-03-21T20:14:16.192Z,23.30
2023-03-21T20:16:43.701Z,27.80
2023-03-21T20:19:15.506Z,25.30
2023-03-21T20:21:49.770Z,20.60
2023-03-21T20:24:20.069Z,18.60
2023-03-21T20:26:46.544Z,19.90
2023-03-21T20:30:07.095Z,21.90
2023-03-21T20:32:00.162Z,19.80
2023-03-21T20:34:28.475Z,18.50
2023-03-21T20:36:55.700Z,21.40
2023-03-21T20:39:22.591Z,18.80
2023-03-21T20:41:49.139Z,16.40
2023-03-21T20:47:04.942Z,19.50
2023-03-21T20:49:31.542Z,17.40
2023-03-21T20:54:46.369Z,22.90
2023-03-21T20:57:12.763Z,18.20
2023-03-21T20:59:40.172Z,17.00
2023-03-21T21:02:06.730Z,17.30
2023-03-21T21:05:15.643Z,19.70
2023-03-21T21:07:21.366Z,18.70
2023-03-21T21:09:48.575Z,16.50
2023-03-21T21:12:18.418Z,16.10
2023-03-21T21:17:27.691Z,14.40
2023-03-21T21:19:59.667Z,13.10
2023-03-21T21:22:27.517Z,16.90
2023-03-21T21:24:53.844Z,13.00
2023-03-21T21:27:20.625Z,12.50
2023-03-21T21:29:49.169Z,13.00
2023-03-21T21:32:17.635Z,14.30
2023-03-21T21:34:43.980Z,17.20
2023-03-21T21:37:10.303Z,14.30
2023-03-21T21:39:38.096Z,15.00
2023-03-21T21:42:05.123Z,17.40
2023-03-21T21:44:31.647Z,16.00
2023-03-21T21:46:58.755Z,16.70
2023-03-21T21:49:27.166Z,13.60
2023-03-21T21:51:53.605Z,13.80
2023-03-21T21:54:19.976Z,12.30
2023-03-21T21:56:53.273Z,12.80
2023-03-21T21:59:21.405Z,12.60
2023-03-21T22:01:50.475Z,14.80
2023-03-21T22:04:17.403Z,13.40
2023-03-21T22:06:43.842Z,12.10
2023-03-21T22:09:10.250Z,12.90
2023-03-21T22:11:36.608Z,13.90
2023-03-21T22:14:03.012Z,17.10
2023-03-21T22:16:29.999Z,17.10
2023-03-21T22:18:56.456Z,13.20
2023-03-21T22:21:23.118Z,13.80
2023-03-21T22:23:49.659Z,15.70
2023-03-21T22:26:16.207Z,17.00
2023-03-21T22:28:43.503Z,15.10
2023-03-21T22:31:15.636Z,18.00
2023-03-21T22:33:43.044Z,15.90
2023-03-21T22:36:10.178Z,15.10
2023-03-21T22:38:37.478Z,17.70
2023-03-21T22:41:05.391Z,9.80
2023-03-21T22:43:33.432Z,11.30
2023-03-21T22:46:01.754Z,18.60
2023-03-21T22:48:29.442Z,14.90
2023-03-21T22:50:57.382Z,18.30
2023-03-21T22:53:24.142Z,13.80
2023-03-21T22:55:50.587Z,16.30
2023-03-21T22:58:17.414Z,17.90
2023-03-21T23:00:43.802Z,17.50
2023-03-21T23:03:10.561Z,21.30
2023-03-21T23:05:41.381Z,16.80
2023-03-21T23:08:08.398Z,16.10
2023-03-21T23:10:39.743Z,16.50
2023-03-21T23:13:06.257Z,20.40
2023-03-21T23:15:32.610Z,21.20
2023-03-21T23:17:59.088Z,17.50
2023-03-21T23:20:25.575Z,20.40
2023-03-21T23:22:51.937Z,19.40
2023-03-21T23:25:19.886Z,18.20
2023-03-21T23:27:46.482Z,17.30
2023-03-21T23:30:13.119Z,16.30
2023-03-21T23:32:39.524Z,17.80
2023-03-21T23:35:06.670Z,18.00
2023-03-21T23:37:33.231Z,17.80
2023-03-21T23:39:59.798Z,15.50
2023-03-21T23:42:28.575Z,17.90
2023-03-21T23:44:54.996Z,13.80
2023-03-21T23:47:21.399Z,18.00
2023-03-21T23:49:49.412Z,16.00
2023-03-21T23:52:15.819Z,24.60
2023-03-21T23:54:42.174Z,19.60
2023-03-21T23:57:08.523Z,20.80
2023-03-21T23:59:34.995Z,21.60
